Time;durP1;ratioP1;P1;durP2;ratioP2;P2;SDS_P1;SDS_P2;PMS_P1;PMS_P2;Temp;Humidity;BMP_temperature;BMP_pressure;BME280_temperature;BME280_humidity;BME280_pressure;Samples;Min_cycle;Max_cycle;Signal;HPM_P1;HPM_P2
2023/04/25 00:01:23;;;;;;;11.80;3.43;;;8.40;99.90;;;;;;4982008;28;20176;-84
2023/04/25 00:03:49;;;;;;;12.80;3.20;;;8.30;99.90;;;;;;4981437;28;20219;-81
2023/04/25 00:06:15;;;;;;;8.30;3.43;;;8.30;99.90;;;;;;4998538;28;20230;-84
2023/04/25 00:08:41;;;;;;;7.73;3.33;;;8.30;99.90;;;;;;4981271;28;20631;-84
2023/04/25 00:11:06;;;;;;;10.23;4.27;;;8.30;99.90;;;;;;4981524;28;20279;-87
2023/04/25 00:13:32;;;;;;;10.13;3.47;;;8.30;99.90;;;;;;4981325;28;20262;-88
2023/04/25 00:15:58;;;;;;;10.57;3.37;;;8.30;99.90;;;;;;4998752;28;20202;-86
2023/04/25 00:18:24;;;;;;;7.17;3.53;;;8.30;99.90;;;;;;4998394;28;20168;-84
2023/04/25 00:20:50;;;;;;;10.43;3.80;;;8.20;99.90;;;;;;4975014;28;20335;-85
2023/04/25 00:23:19;;;;;;;13.33;3.53;;;8.20;99.90;;;;;;4994194;28;20267;-84
2023/04/25 00:25:46;;;;;;;9.33;3.47;;;8.20;99.90;;;;;;4994191;28;20295;-86
2023/04/25 00:28:12;;;;;;;10.50;3.63;;;8.20;99.90;;;;;;4994075;28;20212;-84
2023/04/25 00:30:40;;;;;;;8.93;3.53;;;8.10;99.90;;;;;;4993904;28;20180;-84
2023/04/25 00:33:06;;;;;;;7.83;3.13;;;8.20;99.90;;;;;;4993486;28;20184;-84
2023/04/25 00:35:32;;;;;;;10.13;4.03;;;8.10;99.90;;;;;;4993256;28;20188;-85
2023/04/25 00:37:58;;;;;;;10.13;3.77;;;8.20;99.90;;;;;;4993879;28;20181;-81
2023/04/25 00:40:24;;;;;;;5.37;3.17;;;8.20;99.90;;;;;;4978673;28;20172;-82
2023/04/25 00:42:53;;;;;;;15.30;4.33;;;8.10;99.90;;;;;;4993717;28;20235;-83
2023/04/25 00:45:19;;;;;;;16.17;3.97;;;8.20;99.90;;;;;;4977692;28;20176;-84
2023/04/25 00:47:47;;;;;;;14.83;4.23;;;8.20;99.90;;;;;;4993810;28;20176;-84
2023/04/25 00:50:13;;;;;;;12.33;4.23;;;8.10;99.90;;;;;;4982441;28;20192;-82
2023/04/25 00:52:42;;;;;;;9.60;4.00;;;8.20;99.90;;;;;;4959158;29;20170;-82
2023/04/25 00:55:09;;;;;;;7.57;3.57;;;8.20;99.90;;;;;;4958045;29;20190;-83
2023/04/25 00:57:35;;;;;;;8.70;3.43;;;8.10;99.90;;;;;;4958122;29;20177;-84
2023/04/25 01:00:02;;;;;;;9.43;3.73;;;8.10;99.90;;;;;;4958780;29;20208;-84
2023/04/25 01:02:29;;;;;;;10.57;4.10;;;8.10;99.90;;;;;;4959217;29;20173;-83
2023/04/25 01:04:54;;;;;;;7.20;3.80;;;8.10;99.90;;;;;;4957864;29;20177;-84
2023/04/25 01:07:20;;;;;;;10.87;3.77;;;8.10;99.90;;;;;;4957803;29;20213;-82
2023/04/25 01:09:46;;;;;;;12.63;3.97;;;8.10;99.90;;;;;;4959145;29;20223;-83
2023/04/25 01:12:12;;;;;;;9.77;3.70;;;8.00;99.90;;;;;;4958863;29;20267;-84
2023/04/25 01:14:38;;;;;;;8.63;4.50;;;8.00;99.90;;;;;;4957737;29;20177;-84
2023/04/25 01:17:05;;;;;;;12.43;3.80;;;8.00;99.90;;;;;;4957585;29;20173;-83
2023/04/25 01:19:30;;;;;;;11.13;4.67;;;8.10;99.90;;;;;;4962197;28;20314;-84
2023/04/25 01:21:58;;;;;;;9.57;3.87;;;8.00;99.90;;;;;;4992892;28;20554;-82
2023/04/25 01:24:24;;;;;;;9.70;4.33;;;8.00;99.90;;;;;;4993115;28;20247;-83
2023/04/25 01:26:51;;;;;;;12.83;4.20;;;8.00;99.90;;;;;;4976484;28;20244;-82
2023/04/25 01:29:20;;;;;;;11.40;4.50;;;7.90;99.90;;;;;;4977686;28;20172;-83
2023/04/25 01:31:46;;;;;;;12.37;3.70;;;8.00;99.90;;;;;;4993027;28;20189;-85
2023/04/25 01:34:13;;;;;;;9.70;3.90;;;7.90;99.90;;;;;;4973616;28;20190;-83
2023/04/25 01:36:39;;;;;;;11.20;4.30;;;7.90;99.90;;;;;;4938191;29;20185;-83
2023/04/25 01:39:06;;;;;;;7.67;3.83;;;7.90;99.90;;;;;;4937836;29;20182;-83
2023/04/25 01:41:32;;;;;;;8.63;4.17;;;7.90;99.90;;;;;;4938079;29;20182;-83
2023/04/25 01:43:59;;;;;;;10.20;4.23;;;7.90;99.90;;;;;;4937595;29;20205;-82
2023/04/25 01:46:24;;;;;;;12.67;3.63;;;7.90;99.90;;;;;;4937520;29;20594;-84
2023/04/25 01:48:50;;;;;;;10.63;5.00;;;7.90;99.90;;;;;;4938026;29;20618;-83
2023/04/25 01:51:16;;;;;;;8.33;3.97;;;7.90;99.90;;;;;;4937648;29;20240;-83
2023/04/25 01:53:48;;;;;;;10.33;4.20;;;7.90;99.90;;;;;;4937791;29;20181;-84
2023/04/25 01:56:14;;;;;;;8.73;3.83;;;7.90;99.90;;;;;;4937948;29;20174;-85
2023/04/25 01:58:39;;;;;;;8.27;3.80;;;7.90;99.90;;;;;;4937688;29;20190;-84
2023/04/25 02:01:05;;;;;;;10.47;4.30;;;8.00;99.90;;;;;;4937697;29;20614;-83
2023/04/25 02:03:37;;;;;;;10.33;4.57;;;7.90;99.90;;;;;;4937375;29;20185;-82
2023/04/25 02:06:03;;;;;;;11.03;4.40;;;8.00;99.90;;;;;;4938554;29;20216;-81
2023/04/25 02:08:30;;;;;;;7.97;3.60;;;7.90;99.90;;;;;;4938653;29;20261;-83
2023/04/25 02:10:55;;;;;;;12.00;3.87;;;7.90;99.90;;;;;;4938855;29;20241;-83
2023/04/25 02:13:21;;;;;;;10.27;4.10;;;7.90;99.90;;;;;;4937502;29;20212;-85
2023/04/25 02:15:47;;;;;;;10.00;4.00;;;8.00;99.90;;;;;;4937455;29;20321;-83
2023/04/25 02:18:15;;;;;;;13.00;4.37;;;7.90;99.90;;;;;;4937385;29;20190;-83
2023/04/25 02:20:42;;;;;;;13.57;4.00;;;8.00;99.90;;;;;;4968318;28;20271;-84
2023/04/25 02:23:08;;;;;;;9.57;4.20;;;8.00;99.90;;;;;;4975407;28;20222;-83
2023/04/25 02:25:33;;;;;;;10.03;4.23;;;7.90;99.90;;;;;;4975380;28;20236;-85
2023/04/25 02:27:59;;;;;;;9.40;4.33;;;7.90;99.90;;;;;;4991722;28;20192;-85
2023/04/25 02:30:25;;;;;;;6.97;3.63;;;7.90;99.90;;;;;;4975558;28;20181;-83
2023/04/25 02:32:52;;;;;;;11.27;3.80;;;7.90;99.90;;;;;;4975738;28;20180;-86
2023/04/25 02:35:17;;;;;;;10.43;4.43;;;7.90;99.90;;;;;;4975311;28;20172;-82
2023/04/25 02:37:43;;;;;;;13.30;4.77;;;7.90;99.90;;;;;;4975441;28;20184;-85
2023/04/25 02:40:09;;;;;;;7.60;4.10;;;7.90;99.90;;;;;;4975413;28;20181;-83
2023/04/25 02:42:35;;;;;;;10.50;4.43;;;7.90;99.90;;;;;;4975306;28;20191;-84
2023/04/25 02:45:02;;;;;;;14.80;4.87;;;7.90;99.90;;;;;;4975660;28;20618;-84
2023/04/25 02:47:27;;;;;;;12.77;4.87;;;7.80;99.90;;;;;;4975634;28;20358;-84
2023/04/25 02:49:53;;;;;;;10.23;4.27;;;7.80;99.90;;;;;;4983324;28;20274;-82
2023/04/25 02:52:19;;;;;;;9.83;4.50;;;7.90;99.90;;;;;;4994743;28;20274;-83
2023/04/25 02:54:46;;;;;;;12.23;4.60;;;7.90;99.90;;;;;;4994761;28;20180;-84
2023/04/25 02:57:12;;;;;;;11.67;4.40;;;7.80;99.90;;;;;;4995364;28;20189;-83
2023/04/25 02:59:37;;;;;;;12.90;4.63;;;7.80;99.90;;;;;;4994640;28;20641;-83
2023/04/25 03:02:03;;;;;;;9.47;4.63;;;7.90;99.90;;;;;;4994431;28;20648;-84
2023/04/25 03:04:29;;;;;;;10.67;4.47;;;7.80;99.90;;;;;;4994373;28;20191;-83
2023/04/25 03:06:55;;;;;;;11.37;4.23;;;7.70;99.90;;;;;;4994117;28;20604;-83
2023/04/25 03:09:21;;;;;;;11.17;4.40;;;7.80;99.90;;;;;;4994642;28;20183;-84
2023/04/25 03:11:46;;;;;;;12.60;5.23;;;7.80;99.90;;;;;;4994512;28;20184;-84
2023/04/25 03:14:19;;;;;;;13.63;5.10;;;7.80;99.90;;;;;;4994271;28;20649;-84
2023/04/25 03:16:45;;;;;;;13.23;4.70;;;7.70;99.90;;;;;;4994969;28;20187;-84
2023/04/25 03:19:11;;;;;;;10.00;4.90;;;7.70;99.90;;;;;;4993737;28;20235;-83
2023/04/25 03:21:37;;;;;;;15.67;4.83;;;7.70;99.90;;;;;;4974817;28;20267;-84
2023/04/25 03:24:04;;;;;;;12.53;5.03;;;7.70;99.90;;;;;;4975141;28;20188;-83
2023/04/25 03:26:31;;;;;;;15.60;5.13;;;7.70;99.90;;;;;;4974920;28;20247;-84
2023/04/25 03:28:56;;;;;;;13.30;5.30;;;7.60;99.90;;;;;;4991290;28;20172;-83
2023/04/25 03:31:22;;;;;;;12.53;5.53;;;7.60;99.90;;;;;;4974957;28;20199;-84
2023/04/25 03:33:48;;;;;;;10.13;5.13;;;7.60;99.90;;;;;;4974901;28;20292;-85
2023/04/25 03:36:14;;;;;;;12.53;5.63;;;7.50;99.90;;;;;;4974771;28;20181;-84
2023/04/25 03:38:41;;;;;;;12.77;4.90;;;7.60;99.90;;;;;;4975009;28;20208;-83
2023/04/25 03:41:07;;;;;;;15.20;5.00;;;7.50;99.90;;;;;;4974825;28;20180;-83
2023/04/25 03:43:35;;;;;;;19.30;5.50;;;7.50;99.90;;;;;;4974746;28;20185;-84
2023/04/25 03:46:01;;;;;;;10.77;4.57;;;7.50;99.90;;;;;;4974860;28;20208;-86
2023/04/25 03:48:27;;;;;;;10.70;4.50;;;7.40;99.90;;;;;;4974853;28;20180;-87
2023/04/25 03:50:54;;;;;;;14.27;5.33;;;7.40;99.90;;;;;;4974781;28;20185;-85
2023/04/25 03:53:21;;;;;;;17.40;5.07;;;7.30;99.90;;;;;;4976042;28;20188;-83
2023/04/25 03:55:47;;;;;;;12.13;4.47;;;7.30;99.90;;;;;;4974929;28;20806;-85
2023/04/25 03:58:13;;;;;;;16.87;4.50;;;7.30;99.90;;;;;;4975011;28;20267;-86
2023/04/25 04:00:39;;;;;;;13.63;4.03;;;7.30;99.90;;;;;;4974617;28;20180;-84
2023/04/25 04:03:08;;;;;;;15.37;4.33;;;7.20;99.90;;;;;;4974839;28;20523;-86
2023/04/25 04:05:34;;;;;;;18.50;3.57;;;7.20;99.90;;;;;;4974690;28;20205;-85
2023/04/25 04:08:00;;;;;;;17.50;3.47;;;7.10;99.90;;;;;;4975513;28;20188;-84
2023/04/25 04:10:26;;;;;;;11.03;3.07;;;7.10;99.90;;;;;;4978570;28;20199;-85
2023/04/25 04:12:51;;;;;;;12.83;3.33;;;7.10;99.90;;;;;;4978614;28;20199;-84
2023/04/25 04:15:21;;;;;;;16.43;4.00;;;7.00;99.90;;;;;;4978842;28;20525;-85
2023/04/25 04:17:48;;;;;;;15.97;3.70;;;6.90;99.90;;;;;;4994765;28;20227;-86
2023/04/25 04:20:14;;;;;;;12.63;3.47;;;6.90;99.90;;;;;;4992406;28;20315;-85
2023/04/25 04:22:40;;;;;;;15.70;3.03;;;6.90;99.90;;;;;;4981452;28;20278;-88
2023/04/25 04:25:20;;;;;;;12.43;2.77;;;6.90;99.90;;;;;;4981430;28;20194;-88
2023/04/25 04:27:45;;;;;;;19.00;3.50;;;6.90;99.90;;;;;;4981456;28;20584;-87
2023/04/25 04:30:12;;;;;;;15.77;3.83;;;6.90;99.90;;;;;;4981639;28;20218;-88
2023/04/25 04:32:38;;;;;;;16.20;3.17;;;6.90;99.90;;;;;;4981369;28;20188;-87
2023/04/25 04:35:10;;;;;;;13.03;3.57;;;6.90;99.90;;;;;;4980775;28;20183;-86
2023/04/25 04:37:36;;;;;;;13.63;3.10;;;7.00;99.90;;;;;;4981019;28;20629;-88
2023/04/25 04:40:04;;;;;;;22.00;4.03;;;7.00;99.90;;;;;;4981225;28;20188;-89
2023/04/25 04:42:31;;;;;;;20.77;4.20;;;7.00;99.90;;;;;;4981231;28;20183;-88
2023/04/25 04:44:58;;;;;;;15.60;3.43;;;7.00;99.90;;;;;;4981119;28;20219;-86
2023/04/25 04:47:25;;;;;;;12.43;3.27;;;7.10;99.90;;;;;;4980868;28;20208;-87
2023/04/25 04:49:51;;;;;;;19.33;4.20;;;7.00;99.90;;;;;;4980608;28;20183;-87
2023/04/25 04:52:16;;;;;;;28.93;3.83;;;7.00;99.90;;;;;;4979869;28;20278;-87
2023/04/25 04:54:43;;;;;;;18.40;3.63;;;7.00;99.90;;;;;;4980313;28;20268;-88
2023/04/25 04:57:09;;;;;;;19.53;3.93;;;7.00;99.90;;;;;;4980030;28;20226;-87
2023/04/25 04:59:36;;;;;;;19.17;3.90;;;7.10;99.90;;;;;;4980368;28;20172;-86
2023/04/25 05:02:01;;;;;;;18.67;3.67;;;7.10;99.90;;;;;;4980236;28;20206;-85
2023/04/25 05:04:29;;;;;;;17.27;3.90;;;7.00;99.90;;;;;;4980549;28;20627;-85
2023/04/25 05:06:55;;;;;;;21.37;3.70;;;7.10;99.90;;;;;;4980487;28;20204;-85
2023/04/25 05:09:25;;;;;;;14.37;3.27;;;7.10;99.90;;;;;;4980306;28;20180;-85
2023/04/25 05:11:51;;;;;;;22.17;3.97;;;7.20;99.90;;;;;;4980735;28;20184;-86
2023/04/25 05:14:18;;;;;;;14.47;3.43;;;7.10;99.90;;;;;;4980505;28;20188;-85
2023/04/25 05:16:44;;;;;;;15.23;3.87;;;7.10;99.90;;;;;;4980322;28;20202;-87
2023/04/25 05:19:09;;;;;;;20.23;4.07;;;7.10;99.90;;;;;;4979749;28;20235;-88
2023/04/25 05:21:35;;;;;;;18.97;3.63;;;7.10;99.90;;;;;;4979555;28;20172;-89
2023/04/25 05:24:01;;;;;;;18.07;3.53;;;7.00;99.90;;;;;;4980246;28;20199;-88
2023/04/25 05:26:30;;;;;;;13.40;3.23;;;7.00;99.90;;;;;;4980130;28;20216;-87
2023/04/25 05:28:57;;;;;;;13.67;3.20;;;7.10;99.90;;;;;;4980050;28;20188;-88
2023/04/25 05:31:23;;;;;;;19.30;3.20;;;7.00;99.90;;;;;;4979959;28;20529;-88
2023/04/25 05:33:49;;;;;;;12.80;3.13;;;7.10;99.90;;;;;;4979953;28;20179;-88
2023/04/25 05:36:14;;;;;;;20.63;3.83;;;7.10;99.90;;;;;;4979663;28;20525;-83
2023/04/25 05:38:40;;;;;;;18.80;3.67;;;7.30;99.90;;;;;;4979817;28;20184;-85
2023/04/25 05:41:06;;;;;;;17.10;3.10;;;7.40;99.90;;;;;;4980179;28;20184;-86
2023/04/25 05:43:32;;;;;;;16.93;3.57;;;7.60;99.90;;;;;;4979602;28;20191;-86
2023/04/25 05:45:58;;;;;;;13.27;3.03;;;7.70;99.90;;;;;;4979427;28;20211;-86
2023/04/25 05:48:24;;;;;;;16.73;2.97;;;7.80;99.90;;;;;;4979376;28;20602;-86
2023/04/25 05:50:51;;;;;;;21.03;3.47;;;7.90;99.90;;;;;;4979065;28;20230;-86
2023/04/25 05:53:17;;;;;;;21.00;3.63;;;7.80;99.90;;;;;;4979381;28;20218;-86
2023/04/25 05:55:43;;;;;;;18.60;3.20;;;7.70;99.90;;;;;;4979670;28;20195;-85
2023/04/25 05:58:09;;;;;;;21.80;3.50;;;7.70;99.90;;;;;;4979690;28;20187;-87
2023/04/25 06:00:35;;;;;;;21.37;3.50;;;7.60;99.90;;;;;;4979422;28;20183;-86
2023/04/25 06:03:01;;;;;;;24.07;4.37;;;7.60;99.90;;;;;;4979537;28;20195;-87
2023/04/25 06:05:32;;;;;;;17.77;3.33;;;7.60;99.90;;;;;;4995343;28;20525;-88
2023/04/25 06:07:58;;;;;;;22.13;3.13;;;7.50;99.90;;;;;;4979641;28;20184;-86
2023/04/25 06:10:24;;;;;;;13.47;3.17;;;7.50;99.90;;;;;;4979512;28;20271;-85
2023/04/25 06:12:49;;;;;;;12.90;3.13;;;7.50;99.90;;;;;;4979280;28;20199;-85
2023/04/25 06:15:22;;;;;;;18.33;3.40;;;7.50;99.90;;;;;;4996802;28;20176;-88
2023/04/25 06:17:48;;;;;;;12.60;3.17;;;7.70;99.90;;;;;;4996629;28;20207;-87
2023/04/25 06:20:14;;;;;;;22.47;3.90;;;8.00;99.90;;;;;;4978982;28;20564;-87
2023/04/25 06:22:40;;;;;;;21.07;3.33;;;8.00;99.90;;;;;;4978567;28;20187;-87
2023/04/25 06:25:07;;;;;;;14.33;3.20;;;8.10;99.90;;;;;;4996362;28;20177;-88
2023/04/25 06:27:33;;;;;;;13.47;2.77;;;8.30;99.90;;;;;;4979304;28;20722;-87
2023/04/25 06:29:59;;;;;;;19.50;3.13;;;8.30;99.90;;;;;;4979230;28;20645;-87
2023/04/25 06:32:27;;;;;;;18.43;3.00;;;8.20;99.90;;;;;;4978066;28;20271;-86
2023/04/25 06:35:03;;;;;;;13.10;2.83;;;8.30;99.90;;;;;;4995279;28;20194;-86
2023/04/25 06:37:28;;;;;;;17.50;3.37;;;8.40;99.90;;;;;;4978666;28;20271;-86
2023/04/25 06:39:58;;;;;;;18.87;3.17;;;8.50;99.90;;;;;;4978592;28;20220;-88
2023/04/25 06:42:25;;;;;;;15.07;3.63;;;8.50;99.90;;;;;;4978781;28;20176;-91
2023/04/25 06:44:51;;;;;;;21.23;4.83;;;8.60;99.90;;;;;;4978498;28;20203;-86
2023/04/25 06:47:17;;;;;;;18.03;3.13;;;8.70;99.90;;;;;;4978694;28;20254;-87
2023/04/25 06:49:43;;;;;;;22.17;3.37;;;8.70;99.90;;;;;;4985449;28;20190;-87
2023/04/25 06:52:08;;;;;;;17.20;2.97;;;8.60;99.90;;;;;;4997858;28;20585;-85
2023/04/25 06:54:34;;;;;;;20.97;3.70;;;8.70;99.90;;;;;;4997918;28;20175;-88
2023/04/25 06:57:04;;;;;;;12.43;2.40;;;8.80;99.90;;;;;;4998258;28;20179;-86
2023/04/25 06:59:30;;;;;;;16.13;2.87;;;8.80;99.90;;;;;;4998020;28;20591;-87
2023/04/25 07:01:56;;;;;;;14.73;3.23;;;8.80;99.90;;;;;;4997938;28;20183;-87
2023/04/25 07:04:21;;;;;;;18.10;2.80;;;8.90;99.90;;;;;;4998108;28;20269;-84
2023/04/25 07:07:02;;;;;;;11.20;2.53;;;9.00;99.90;;;;;;4997784;28;20265;-88
2023/04/25 07:09:28;;;;;;;16.60;2.67;;;9.10;99.90;;;;;;4997824;28;20177;-91
2023/04/25 07:11:54;;;;;;;12.67;2.80;;;8.90;99.90;;;;;;4997896;28;20183;-89
2023/04/25 07:14:20;;;;;;;16.00;2.70;;;9.00;99.90;;;;;;4979280;28;20211;-90
2023/04/25 07:16:55;;;;;;;18.00;3.77;;;9.10;99.90;;;;;;4959375;28;20202;-92
2023/04/25 07:19:21;;;;;;;16.77;2.60;;;9.10;99.90;;;;;;4958650;28;20573;-89
2023/04/25 07:21:48;;;;;;;10.33;2.40;;;9.10;99.90;;;;;;4959129;28;20211;-90
2023/04/25 07:24:14;;;;;;;11.80;2.50;;;9.00;99.90;;;;;;4959015;28;20192;-89
2023/04/25 07:26:40;;;;;;;14.00;2.03;;;8.80;99.90;;;;;;4958794;28;20671;-89
2023/04/25 07:29:05;;;;;;;16.60;2.90;;;8.70;99.90;;;;;;4959024;28;20177;-87
2023/04/25 07:31:31;;;;;;;8.60;2.50;;;8.60;99.90;;;;;;4958981;28;20184;-88
2023/04/25 07:33:57;;;;;;;11.87;2.93;;;8.50;99.90;;;;;;4959106;28;20271;-87
2023/04/25 07:36:26;;;;;;;12.40;2.87;;;8.60;99.90;;;;;;4958533;28;20248;-90
2023/04/25 07:38:52;;;;;;;14.97;2.20;;;8.80;99.90;;;;;;4958896;28;20211;-87
2023/04/25 07:41:20;;;;;;;14.03;2.50;;;9.00;99.90;;;;;;4958660;28;20216;-87
2023/04/25 07:43:46;;;;;;;8.97;2.40;;;9.20;99.90;;;;;;4960709;28;20214;-88
2023/04/25 07:46:12;;;;;;;18.00;3.40;;;9.30;99.90;;;;;;4962595;28;20255;-84
2023/04/25 07:48:38;;;;;;;11.13;2.60;;;9.40;99.90;;;;;;4962932;28;20169;-87
2023/04/25 07:51:05;;;;;;;9.37;2.50;;;9.40;99.90;;;;;;4962578;28;20766;-85
2023/04/25 07:53:32;;;;;;;14.20;2.40;;;9.50;99.90;;;;;;4962493;28;20176;-87
2023/04/25 07:55:59;;;;;;;12.97;2.13;;;9.60;99.90;;;;;;4978746;28;20255;-88
2023/04/25 07:58:25;;;;;;;6.47;1.73;;;9.60;99.90;;;;;;4962609;28;20260;-87
2023/04/25 08:00:50;;;;;;;13.63;2.33;;;9.40;99.90;;;;;;4962495;28;20177;-87
2023/04/25 08:03:16;;;;;;;11.37;2.20;;;9.20;99.90;;;;;;4961909;28;20184;-87
2023/04/25 08:05:42;;;;;;;13.13;2.47;;;9.00;99.90;;;;;;4961439;28;20212;-86
2023/04/25 08:08:17;;;;;;;14.93;2.47;;;9.10;99.90;;;;;;4962048;28;20180;-88
2023/04/25 08:10:42;;;;;;;8.80;2.10;;;9.10;99.90;;;;;;4962259;28;20260;-89
2023/04/25 08:13:08;;;;;;;11.53;2.70;;;9.10;99.90;;;;;;4962266;28;20271;-88
2023/04/25 08:15:34;;;;;;;14.50;2.57;;;9.00;99.90;;;;;;4962314;28;20188;-91
2023/04/25 08:18:20;;;;;;;11.97;2.87;;;8.90;99.90;;;;;;4962249;28;20567;-90
2023/04/25 08:20:46;;;;;;;12.93;3.10;;;8.90;99.90;;;;;;4961756;28;20236;-89
2023/04/25 08:23:12;;;;;;;9.07;2.03;;;8.70;99.90;;;;;;4961539;28;20187;-91
2023/04/25 08:25:37;;;;;;;16.30;2.57;;;8.70;99.90;;;;;;4962117;28;20199;-89
2023/04/25 08:28:05;;;;;;;11.17;2.77;;;8.50;99.90;;;;;;4962038;28;20833;-90
2023/04/25 08:30:30;;;;;;;13.03;2.37;;;8.50;99.90;;;;;;4961814;28;20695;-86
2023/04/25 08:32:56;;;;;;;12.70;2.33;;;8.50;99.90;;;;;;4961545;28;20275;-89
2023/04/25 08:35:22;;;;;;;12.57;2.27;;;8.50;99.90;;;;;;4961498;28;20184;-87
2023/04/25 08:37:49;;;;;;;11.03;2.20;;;8.50;99.90;;;;;;4961336;28;20239;-90
2023/04/25 08:40:15;;;;;;;9.40;1.90;;;8.50;99.90;;;;;;4961447;28;20185;-90
2023/04/25 08:42:42;;;;;;;13.70;2.57;;;8.40;99.90;;;;;;4961417;28;20208;-90
2023/04/25 08:45:14;;;;;;;13.93;3.00;;;8.50;99.90;;;;;;4961748;28;20181;-90
2023/04/25 08:47:41;;;;;;;14.87;2.90;;;8.60;99.90;;;;;;4961509;28;20227;-89
2023/04/25 08:50:07;;;;;;;12.80;2.60;;;8.70;99.90;;;;;;4961705;28;20177;-89
2023/04/25 08:52:37;;;;;;;14.60;2.90;;;8.90;99.90;;;;;;4961149;28;20267;-86
2023/04/25 08:55:06;;;;;;;15.67;2.67;;;9.10;99.90;;;;;;4960173;28;20268;-86
2023/04/25 08:57:34;;;;;;;8.30;2.20;;;9.10;99.90;;;;;;4961306;28;20204;-87
2023/04/25 09:00:01;;;;;;;12.77;2.13;;;9.10;99.90;;;;;;4978444;28;20522;-87
2023/04/25 09:02:27;;;;;;;14.77;2.30;;;9.00;99.90;;;;;;4961283;28;20203;-87
2023/04/25 09:04:54;;;;;;;11.73;2.80;;;9.00;99.90;;;;;;4961261;28;20185;-88
2023/04/25 09:07:22;;;;;;;11.00;2.23;;;9.30;99.90;;;;;;4961057;28;20212;-90
2023/04/25 09:09:48;;;;;;;14.17;2.33;;;9.50;99.90;;;;;;4961077;28;20180;-89
2023/04/25 09:12:14;;;;;;;10.77;2.13;;;9.60;99.90;;;;;;4978457;28;20203;-90
2023/04/25 09:14:40;;;;;;;6.43;1.80;;;9.70;99.30;;;;;;4978318;28;20169;-90
2023/04/25 09:17:07;;;;;;;9.10;1.80;;;10.00;99.10;;;;;;4978527;28;20202;-90
2023/04/25 09:19:35;;;;;;;6.00;1.70;;;10.40;99.30;;;;;;4977002;28;20282;-92
2023/04/25 09:22:03;;;;;;;10.90;1.85;;;10.40;98.40;;;;;;4978305;28;20176;-91
2023/04/25 09:24:36;;;;;;;8.60;2.25;;;10.40;96.90;;;;;;4961264;28;20534;-91
2023/04/25 09:27:10;;;;;;;12.07;1.90;;;10.20;97.70;;;;;;4977038;28;20240;-87
2023/04/25 09:29:38;;;;;;;6.82;1.63;;;9.90;97.30;;;;;;4960898;28;20270;-89
2023/04/25 09:32:30;;;;;;;10.10;2.10;;;9.80;97.60;;;;;;4960357;28;20191;-87
2023/04/25 09:34:57;;;;;;;5.33;1.60;;;9.50;95.50;;;;;;4973344;28;20184;-88
2023/04/25 09:37:28;;;;;;;5.20;1.57;;;9.40;96.20;;;;;;4960476;28;20183;-88
2023/04/25 09:39:56;;;;;;;9.37;2.20;;;9.30;96.90;;;;;;4960727;28;20235;-90
2023/04/25 09:42:27;;;;;;;7.13;1.67;;;9.30;97.50;;;;;;4960512;28;20239;-89
2023/04/25 09:44:54;;;;;;;8.47;2.10;;;9.50;97.40;;;;;;4960632;28;20439;-88
2023/04/25 09:47:23;;;;;;;12.03;2.37;;;9.60;97.20;;;;;;4960393;28;20215;-90
2023/04/25 09:49:50;;;;;;;4.43;1.60;;;9.60;96.50;;;;;;4960341;28;20177;-90
2023/04/25 09:52:20;;;;;;;8.80;2.03;;;9.60;96.50;;;;;;4977280;28;20211;-89
2023/04/25 09:54:48;;;;;;;10.43;1.90;;;9.60;96.50;;;;;;4960575;28;20181;-90
2023/04/25 09:57:23;;;;;;;6.83;1.80;;;9.40;97.10;;;;;;4977675;28;20172;-89
2023/04/25 09:59:53;;;;;;;8.17;1.70;;;9.30;96.40;;;;;;4960431;28;20195;-90
2023/04/25 10:02:24;;;;;;;6.40;1.83;;;9.10;97.50;;;;;;4976221;28;20177;-90
2023/04/25 10:04:54;;;;;;;5.03;1.60;;;9.10;97.20;;;;;;4960134;28;20184;-91
2023/04/25 10:07:25;;;;;;;7.53;2.13;;;9.00;96.70;;;;;;4959514;28;20213;-89
2023/04/25 10:10:03;;;;;;;9.63;1.93;;;8.90;97.60;;;;;;4960094;28;20181;-89
2023/04/25 10:12:33;;;;;;;11.57;1.80;;;9.00;98.10;;;;;;4959952;28;20235;-90
2023/04/25 10:15:00;;;;;;;6.53;1.80;;;9.00;98.50;;;;;;4959999;28;20177;-88
2023/04/25 10:17:29;;;;;;;7.53;1.70;;;9.10;97.50;;;;;;4958429;28;20627;-88
2023/04/25 10:19:56;;;;;;;7.87;1.80;;;9.10;97.50;;;;;;4983884;28;20223;-88
2023/04/25 10:22:58;;;;;;;6.77;1.47;;;9.10;97.80;;;;;;4995786;28;20191;-88
2023/04/25 10:25:24;;;;;;;5.80;1.77;;;9.20;97.30;;;;;;4978636;28;20239;-88
2023/04/25 10:27:53;;;;;;;5.27;1.40;;;9.30;97.30;;;;;;4978878;28;20195;-89
2023/04/25 10:30:19;;;;;;;6.05;1.65;;;9.60;99.20;;;;;;4978946;28;20198;-86
2023/04/25 10:32:47;;;;;;;5.93;1.47;;;10.00;98.30;;;;;;4978615;28;20607;-88
2023/04/25 10:35:18;;;;;;;6.80;1.40;;;10.40;96.00;;;;;;4978537;28;20175;-88
2023/04/25 10:38:04;;;;;;;8.57;1.73;;;10.70;97.80;;;;;;4994937;28;20207;-89
2023/04/25 10:40:31;;;;;;;8.60;2.10;;;11.10;92.20;;;;;;4978840;28;20266;-84
2023/04/25 10:43:36;;;;;;;4.50;1.17;;;11.10;92.20;;;;;;4978453;28;20191;-87
2023/04/25 10:46:12;;;;;;;8.35;1.45;;;11.50;94.40;;;;;;4994836;28;20249;-86
2023/04/25 10:48:56;;;;;;;3.05;1.13;;;11.60;91.00;;;;;;4978412;28;20183;-84
2023/04/25 10:51:28;;;;;;;10.68;1.80;;;11.20;93.40;;;;;;4978429;28;20603;-86
2023/04/25 10:54:02;;;;;;;3.70;1.17;;;10.80;93.10;;;;;;4978198;28;20191;-86
2023/04/25 10:56:44;;;;;;;8.95;1.77;;;10.50;93.30;;;;;;4978745;28;20196;-86
2023/04/25 10:59:12;;;;;;;9.13;2.00;;;10.20;93.80;;;;;;4978474;28;20176;-89
2023/04/25 11:01:40;;;;;;;6.57;1.58;;;10.00;93.10;;;;;;4994791;28;20183;-86
2023/04/25 11:04:18;;;;;;;7.30;1.20;;;9.80;94.70;;;;;;4978346;28;20214;-87
2023/04/25 11:07:06;;;;;;;3.47;1.60;;;9.70;94.50;;;;;;4976315;28;20214;-85
2023/04/25 11:09:40;;;;;;;9.27;1.85;;;9.70;95.00;;;;;;4994577;28;20615;-84
2023/04/25 11:12:09;;;;;;;6.50;1.43;;;9.80;96.50;;;;;;4978000;28;20182;-87
2023/04/25 11:14:36;;;;;;;3.97;1.60;;;9.90;95.40;;;;;;4977265;28;20180;-85
2023/04/25 11:17:05;;;;;;;6.07;1.42;;;10.00;95.00;;;;;;4958924;28;20637;-87
2023/04/25 11:19:31;;;;;;;7.47;1.30;;;9.90;95.10;;;;;;4960293;28;20239;-87
2023/04/25 11:21:58;;;;;;;6.03;1.80;;;9.80;94.70;;;;;;4975935;28;20537;-85
2023/04/25 11:24:31;;;;;;;5.57;1.87;;;9.70;94.30;;;;;;4978213;28;20188;-86
2023/04/25 11:27:02;;;;;;;3.77;1.67;;;9.70;94.20;;;;;;4978002;28;20204;-89
2023/04/25 11:29:32;;;;;;;5.80;1.77;;;9.60;96.10;;;;;;4978224;28;20168;-87
2023/04/25 11:31:59;;;;;;;5.97;1.70;;;9.60;95.20;;;;;;4977839;28;20283;-86
2023/04/25 11:34:26;;;;;;;5.05;1.50;;;9.50;96.00;;;;;;4978079;28;20610;-85
2023/04/25 11:36:53;;;;;;;7.00;1.50;;;9.30;95.70;;;;;;4977683;28;20180;-82
2023/04/25 11:39:21;;;;;;;6.03;1.43;;;9.20;96.80;;;;;;4993994;28;20296;-85
2023/04/25 11:41:47;;;;;;;6.93;1.80;;;9.00;96.80;;;;;;4995237;28;20191;-83
2023/04/25 11:44:16;;;;;;;5.63;1.53;;;8.90;98.10;;;;;;4977408;28;20179;-83
2023/04/25 11:46:43;;;;;;;5.23;1.33;;;8.90;98.80;;;;;;4977635;28;20558;-84
2023/04/25 11:49:11;;;;;;;5.50;1.37;;;8.90;98.50;;;;;;4993885;28;20184;-86
2023/04/25 11:51:43;;;;;;;4.90;1.13;;;8.90;99.10;;;;;;4977679;28;20186;-85
2023/04/25 11:54:08;;;;;;;8.87;1.77;;;9.00;99.90;;;;;;4994661;28;20172;-84
2023/04/25 11:56:34;;;;;;;6.43;1.40;;;9.10;99.90;;;;;;4977211;28;20180;-84
2023/04/25 11:59:05;;;;;;;7.70;1.77;;;9.20;99.20;;;;;;4977196;28;20650;-84
2023/04/25 12:01:38;;;;;;;6.33;1.40;;;9.40;99.90;;;;;;4977426;28;20176;-85
2023/04/25 12:04:16;;;;;;;8.33;1.67;;;9.60;98.90;;;;;;4994712;28;20215;-84
2023/04/25 12:06:46;;;;;;;7.30;1.70;;;9.70;98.30;;;;;;4977247;28;20673;-84
2023/04/25 12:09:15;;;;;;;4.27;1.40;;;9.80;97.60;;;;;;4977292;28;20180;-84
2023/04/25 12:11:52;;;;;;;6.13;1.70;;;10.20;98.60;;;;;;4977513;28;20222;-84
2023/04/25 12:14:29;;;;;;;5.73;1.53;;;10.60;97.00;;;;;;4977794;28;20184;-84
2023/04/25 12:17:00;;;;;;;4.22;1.10;;;10.70;95.40;;;;;;4977766;28;20247;-86
2023/04/25 12:19:33;;;;;;;3.45;1.13;;;10.80;94.30;;;;;;4994668;28;20231;-83
2023/04/25 12:22:03;;;;;;;6.13;1.40;;;11.00;93.70;;;;;;4977369;28;20215;-84
2023/04/25 12:24:29;;;;;;;6.70;1.65;;;11.10;93.40;;;;;;4977222;28;20607;-84
2023/04/25 12:27:02;;;;;;;4.53;1.60;;;11.20;93.80;;;;;;4994528;28;20258;-84
2023/04/25 12:29:31;;;;;;;4.72;1.40;;;11.20;94.90;;;;;;4994686;28;20176;-84
2023/04/25 12:31:57;;;;;;;4.00;1.20;;;11.10;93.80;;;;;;4998368;28;20501;-84
2023/04/25 12:34:23;;;;;;;4.63;1.40;;;11.00;94.60;;;;;;4980936;28;20218;-85
2023/04/25 12:36:50;;;;;;;4.60;1.20;;;10.90;95.10;;;;;;4980554;28;20183;-84
2023/04/25 12:39:22;;;;;;;6.22;1.95;;;11.00;94.70;;;;;;4998256;28;20171;-87
2023/04/25 12:41:49;;;;;;;7.30;2.03;;;10.90;93.50;;;;;;4980862;28;20183;-88
2023/04/25 12:44:15;;;;;;;4.75;1.10;;;10.80;94.60;;;;;;4980704;28;20519;-86
2023/04/25 12:46:41;;;;;;;4.22;1.20;;;10.60;94.40;;;;;;4997999;28;20203;-87
2023/04/25 12:49:08;;;;;;;2.72;1.08;;;10.60;94.60;;;;;;4999907;28;20180;-88
2023/04/25 12:51:38;;;;;;;4.30;1.30;;;10.80;94.10;;;;;;5017480;28;20273;-86
2023/04/25 12:54:06;;;;;;;5.63;1.30;;;11.00;94.40;;;;;;5017603;28;20167;-83